sensor_id;sensor_type;location;lat;lon;timestamp;P1;durP1;ratioP1;P2;durP2;ratioP2
48205;SDS011;33995;48.202;16.260;2023-02-28T00:01:10;10.37;;;8.00;;
48205;SDS011;33995;48.202;16.260;2023-02-28T00:03:38;9.87;;;8.00;;
48205;SDS011;33995;48.202;16.260;2023-02-28T00:06:08;9.17;;;7.80;;
48205;SDS011;33995;48.202;16.260;2023-02-28T00:08:36;9.87;;;7.80;;
48205;SDS011;33995;48.202;16.260;2023-02-28T00:11:04;9.57;;;7.20;;
48205;SDS011;33995;48.202;16.260;2023-02-28T00:13:34;10.17;;;7.97;;
48205;SDS011;33995;48.202;16.260;2023-02-28T00:16:04;10.93;;;7.70;;
48205;SDS011;33995;48.202;16.260;2023-02-28T00:18:33;10.20;;;8.57;;
48205;SDS011;33995;48.202;16.260;2023-02-28T00:21:00;10.53;;;8.57;;
48205;SDS011;33995;48.202;16.260;2023-02-28T00:23:30;10.30;;;8.33;;
48205;SDS011;33995;48.202;16.260;2023-02-28T00:25:57;10.87;;;8.40;;
48205;SDS011;33995;48.202;16.260;2023-02-28T00:28:24;11.33;;;9.00;;
48205;SDS011;33995;48.202;16.260;2023-02-28T00:30:51;11.60;;;9.50;;
48205;SDS011;33995;48.202;16.260;2023-02-28T00:33:19;12.20;;;10.20;;
48205;SDS011;33995;48.202;16.260;2023-02-28T00:35:46;12.40;;;9.70;;
48205;SDS011;33995;48.202;16.260;2023-02-28T00:38:15;12.63;;;9.50;;
48205;SDS011;33995;48.202;16.260;2023-02-28T00:40:42;12.17;;;9.27;;
48205;SDS011;33995;48.202;16.260;2023-02-28T00:43:10;12.90;;;9.73;;
48205;SDS011;33995;48.202;16.260;2023-02-28T00:45:37;11.63;;;9.70;;
48205;SDS011;33995;48.202;16.260;2023-02-28T00:48:05;11.33;;;9.17;;
48205;SDS011;33995;48.202;16.260;2023-02-28T00:50:32;10.57;;;8.90;;
48205;SDS011;33995;48.202;16.260;2023-02-28T00:52:59;10.47;;;8.60;;
48205;SDS011;33995;48.202;16.260;2023-02-28T00:55:26;9.80;;;7.83;;
48205;SDS011;33995;48.202;16.260;2023-02-28T00:57:53;9.47;;;8.13;;
48205;SDS011;33995;48.202;16.260;2023-02-28T01:00:20;9.57;;;7.80;;
48205;SDS011;33995;48.202;16.260;2023-02-28T01:02:49;10.23;;;8.13;;
48205;SDS011;33995;48.202;16.260;2023-02-28T01:05:16;8.47;;;7.40;;
48205;SDS011;33995;48.202;16.260;2023-02-28T01:07:44;10.07;;;7.90;;
48205;SDS011;33995;48.202;16.260;2023-02-28T01:10:11;10.00;;;8.10;;
48205;SDS011;33995;48.202;16.260;2023-02-28T01:12:39;9.20;;;7.80;;
48205;SDS011;33995;48.202;16.260;2023-02-28T01:15:09;10.53;;;8.10;;
48205;SDS011;33995;48.202;16.260;2023-02-28T01:17:36;10.07;;;8.13;;
48205;SDS011;33995;48.202;16.260;2023-02-28T01:20:04;10.53;;;8.07;;
48205;SDS011;33995;48.202;16.260;2023-02-28T01:22:32;11.37;;;7.90;;
48205;SDS011;33995;48.202;16.260;2023-02-28T01:25:01;9.60;;;7.93;;
48205;SDS011;33995;48.202;16.260;2023-02-28T01:27:30;9.67;;;8.20;;
48205;SDS011;33995;48.202;16.260;2023-02-28T01:29:58;9.60;;;7.90;;
48205;SDS011;33995;48.202;16.260;2023-02-28T01:32:24;11.07;;;8.03;;
48205;SDS011;33995;48.202;16.260;2023-02-28T01:34:52;10.00;;;7.97;;
48205;SDS011;33995;48.202;16.260;2023-02-28T01:37:19;9.80;;;7.63;;
48205;SDS011;33995;48.202;16.260;2023-02-28T01:39:47;9.73;;;7.83;;
48205;SDS011;33995;48.202;16.260;2023-02-28T01:42:14;10.97;;;7.90;;
48205;SDS011;33995;48.202;16.260;2023-02-28T01:47:38;11.07;;;8.63;;
48205;SDS011;33995;48.202;16.260;2023-02-28T01:50:19;11.87;;;9.13;;
48205;SDS011;33995;48.202;16.260;2023-02-28T01:52:50;12.67;;;8.70;;
48205;SDS011;33995;48.202;16.260;2023-02-28T01:55:18;11.87;;;9.30;;
48205;SDS011;33995;48.202;16.260;2023-02-28T01:57:51;11.77;;;9.50;;
48205;SDS011;33995;48.202;16.260;2023-02-28T02:00:22;13.27;;;9.87;;
48205;SDS011;33995;48.202;16.260;2023-02-28T02:02:55;13.70;;;10.60;;
48205;SDS011;33995;48.202;16.260;2023-02-28T02:05:28;14.37;;;10.33;;
48205;SDS011;33995;48.202;16.260;2023-02-28T02:08:01;15.13;;;10.07;;
48205;SDS011;33995;48.202;16.260;2023-02-28T02:10:41;13.27;;;10.40;;
48205;SDS011;33995;48.202;16.260;2023-02-28T02:13:38;12.17;;;10.17;;
48205;SDS011;33995;48.202;16.260;2023-02-28T02:35:40;12.40;;;10.30;;
48205;SDS011;33995;48.202;16.260;2023-02-28T02:46:46;14.13;;;10.87;;
48205;SDS011;33995;48.202;16.260;2023-02-28T02:49:21;12.73;;;10.33;;
48205;SDS011;33995;48.202;16.260;2023-02-28T02:51:51;12.27;;;10.37;;
48205;SDS011;33995;48.202;16.260;2023-02-28T02:54:22;12.80;;;10.37;;
48205;SDS011;33995;48.202;16.260;2023-02-28T02:56:59;12.60;;;10.40;;
48205;SDS011;33995;48.202;16.260;2023-02-28T02:59:35;13.80;;;11.03;;
48205;SDS011;33995;48.202;16.260;2023-02-28T03:02:06;13.87;;;10.80;;
48205;SDS011;33995;48.202;16.260;2023-02-28T03:04:38;12.50;;;10.53;;
48205;SDS011;33995;48.202;16.260;2023-02-28T03:07:09;14.40;;;10.83;;
48205;SDS011;33995;48.202;16.260;2023-02-28T03:09:36;11.90;;;9.70;;
48205;SDS011;33995;48.202;16.260;2023-02-28T03:12:06;13.60;;;11.17;;
48205;SDS011;33995;48.202;16.260;2023-02-28T03:17:36;12.07;;;10.13;;
48205;SDS011;33995;48.202;16.260;2023-02-28T03:20:23;14.43;;;11.73;;
48205;SDS011;33995;48.202;16.260;2023-02-28T03:28:32;13.17;;;10.47;;
48205;SDS011;33995;48.202;16.260;2023-02-28T03:31:26;14.17;;;11.73;;
48205;SDS011;33995;48.202;16.260;2023-02-28T03:34:08;14.10;;;11.37;;
48205;SDS011;33995;48.202;16.260;2023-02-28T03:36:42;13.17;;;10.93;;
48205;SDS011;33995;48.202;16.260;2023-02-28T03:39:15;14.47;;;11.27;;
48205;SDS011;33995;48.202;16.260;2023-02-28T03:41:49;13.97;;;10.50;;
48205;SDS011;33995;48.202;16.260;2023-02-28T03:44:27;14.40;;;11.47;;
48205;SDS011;33995;48.202;16.260;2023-02-28T03:47:03;13.30;;;11.10;;
48205;SDS011;33995;48.202;16.260;2023-02-28T03:49:44;14.70;;;11.70;;
48205;SDS011;33995;48.202;16.260;2023-02-28T03:52:17;13.13;;;11.10;;
48205;SDS011;33995;48.202;16.260;2023-02-28T03:54:50;12.97;;;10.87;;
48205;SDS011;33995;48.202;16.260;2023-02-28T03:57:27;14.43;;;11.40;;
48205;SDS011;33995;48.202;16.260;2023-02-28T04:00:06;14.33;;;11.20;;
48205;SDS011;33995;48.202;16.260;2023-02-28T04:02:40;13.77;;;11.23;;
48205;SDS011;33995;48.202;16.260;2023-02-28T04:05:07;14.97;;;11.17;;
48205;SDS011;33995;48.202;16.260;2023-02-28T04:07:35;15.53;;;11.73;;
48205;SDS011;33995;48.202;16.260;2023-02-28T04:10:03;13.63;;;11.37;;
48205;SDS011;33995;48.202;16.260;2023-02-28T04:12:30;15.40;;;11.40;;
48205;SDS011;33995;48.202;16.260;2023-02-28T04:14:58;14.33;;;11.33;;
48205;SDS011;33995;48.202;16.260;2023-02-28T04:17:25;15.13;;;11.40;;
48205;SDS011;33995;48.202;16.260;2023-02-28T04:19:52;13.73;;;10.63;;
48205;SDS011;33995;48.202;16.260;2023-02-28T04:22:23;14.27;;;11.47;;
48205;SDS011;33995;48.202;16.260;2023-02-28T04:24:53;14.53;;;11.93;;
48205;SDS011;33995;48.202;16.260;2023-02-28T04:27:21;13.80;;;11.23;;
48205;SDS011;33995;48.202;16.260;2023-02-28T04:29:49;13.40;;;11.67;;
48205;SDS011;33995;48.202;16.260;2023-02-28T04:32:16;14.37;;;11.60;;
48205;SDS011;33995;48.202;16.260;2023-02-28T04:34:43;14.03;;;11.33;;
48205;SDS011;33995;48.202;16.260;2023-02-28T04:37:11;13.70;;;11.43;;
48205;SDS011;33995;48.202;16.260;2023-02-28T04:39:40;15.03;;;11.37;;
48205;SDS011;33995;48.202;16.260;2023-02-28T04:42:08;15.07;;;12.07;;
48205;SDS011;33995;48.202;16.260;2023-02-28T04:44:35;14.60;;;11.70;;
48205;SDS011;33995;48.202;16.260;2023-02-28T04:47:04;14.53;;;11.63;;
48205;SDS011;33995;48.202;16.260;2023-02-28T04:49:31;15.20;;;11.50;;
48205;SDS011;33995;48.202;16.260;2023-02-28T04:51:58;14.23;;;11.53;;
48205;SDS011;33995;48.202;16.260;2023-02-28T04:54:27;14.87;;;11.70;;
48205;SDS011;33995;48.202;16.260;2023-02-28T04:56:54;14.03;;;11.13;;
48205;SDS011;33995;48.202;16.260;2023-02-28T04:59:22;14.30;;;11.70;;
48205;SDS011;33995;48.202;16.260;2023-02-28T05:01:49;15.20;;;11.60;;
48205;SDS011;33995;48.202;16.260;2023-02-28T05:04:16;16.23;;;12.40;;
48205;SDS011;33995;48.202;16.260;2023-02-28T05:06:45;16.53;;;12.93;;
48205;SDS011;33995;48.202;16.260;2023-02-28T05:09:13;15.93;;;12.53;;
48205;SDS011;33995;48.202;16.260;2023-02-28T05:11:41;14.60;;;11.70;;
48205;SDS011;33995;48.202;16.260;2023-02-28T05:14:12;15.83;;;12.60;;
48205;SDS011;33995;48.202;16.260;2023-02-28T05:16:40;17.07;;;12.33;;
48205;SDS011;33995;48.202;16.260;2023-02-28T05:19:08;15.40;;;12.70;;
48205;SDS011;33995;48.202;16.260;2023-02-28T05:21:38;15.40;;;12.27;;
48205;SDS011;33995;48.202;16.260;2023-02-28T05:24:16;16.43;;;12.00;;
48205;SDS011;33995;48.202;16.260;2023-02-28T05:26:50;15.10;;;12.10;;
48205;SDS011;33995;48.202;16.260;2023-02-28T05:29:19;16.17;;;12.07;;
48205;SDS011;33995;48.202;16.260;2023-02-28T05:31:47;16.20;;;12.47;;
48205;SDS011;33995;48.202;16.260;2023-02-28T05:34:15;17.37;;;12.40;;
48205;SDS011;33995;48.202;16.260;2023-02-28T05:36:42;18.40;;;12.97;;
48205;SDS011;33995;48.202;16.260;2023-02-28T05:39:11;15.67;;;12.77;;
48205;SDS011;33995;48.202;16.260;2023-02-28T05:41:42;15.60;;;13.03;;
48205;SDS011;33995;48.202;16.260;2023-02-28T05:44:10;15.97;;;12.27;;
48205;SDS011;33995;48.202;16.260;2023-02-28T05:46:37;17.00;;;12.43;;
48205;SDS011;33995;48.202;16.260;2023-02-28T05:49:04;15.03;;;11.97;;
48205;SDS011;33995;48.202;16.260;2023-02-28T05:51:32;16.53;;;12.53;;
48205;SDS011;33995;48.202;16.260;2023-02-28T05:54:00;16.67;;;12.40;;
48205;SDS011;33995;48.202;16.260;2023-02-28T05:56:28;15.97;;;12.57;;
48205;SDS011;33995;48.202;16.260;2023-02-28T05:58:55;15.53;;;12.80;;
48205;SDS011;33995;48.202;16.260;2023-02-28T06:01:33;16.60;;;12.70;;
48205;SDS011;33995;48.202;16.260;2023-02-28T06:04:03;21.43;;;13.40;;
48205;SDS011;33995;48.202;16.260;2023-02-28T06:06:32;17.77;;;13.43;;
48205;SDS011;33995;48.202;16.260;2023-02-28T06:09:03;17.23;;;13.80;;
48205;SDS011;33995;48.202;16.260;2023-02-28T06:11:32;16.83;;;13.30;;
48205;SDS011;33995;48.202;16.260;2023-02-28T06:14:00;16.17;;;12.53;;
48205;SDS011;33995;48.202;16.260;2023-02-28T06:16:29;17.00;;;13.70;;
48205;SDS011;33995;48.202;16.260;2023-02-28T06:18:59;18.03;;;13.67;;
48205;SDS011;33995;48.202;16.260;2023-02-28T06:21:28;17.07;;;13.53;;
48205;SDS011;33995;48.202;16.260;2023-02-28T06:23:56;18.40;;;13.50;;
48205;SDS011;33995;48.202;16.260;2023-02-28T06:26:25;16.93;;;13.83;;
48205;SDS011;33995;48.202;16.260;2023-02-28T06:28:52;22.53;;;14.90;;
48205;SDS011;33995;48.202;16.260;2023-02-28T06:31:20;24.30;;;18.00;;
48205;SDS011;33995;48.202;16.260;2023-02-28T06:33:48;35.23;;;27.87;;
48205;SDS011;33995;48.202;16.260;2023-02-28T06:36:16;37.03;;;29.03;;
48205;SDS011;33995;48.202;16.260;2023-02-28T06:38:43;24.50;;;19.93;;
48205;SDS011;33995;48.202;16.260;2023-02-28T06:41:11;20.83;;;16.27;;
48205;SDS011;33995;48.202;16.260;2023-02-28T06:43:39;17.97;;;14.10;;
48205;SDS011;33995;48.202;16.260;2023-02-28T06:46:10;17.87;;;13.90;;
48205;SDS011;33995;48.202;16.260;2023-02-28T06:48:42;19.67;;;14.67;;
48205;SDS011;33995;48.202;16.260;2023-02-28T06:51:15;20.87;;;14.33;;
48205;SDS011;33995;48.202;16.260;2023-02-28T06:53:47;22.10;;;17.33;;
48205;SDS011;33995;48.202;16.260;2023-02-28T06:56:15;22.57;;;15.73;;
48205;SDS011;33995;48.202;16.260;2023-02-28T06:58:47;18.40;;;15.20;;
48205;SDS011;33995;48.202;16.260;2023-02-28T07:01:15;18.30;;;14.33;;
48205;SDS011;33995;48.202;16.260;2023-02-28T07:03:43;19.57;;;14.27;;
48205;SDS011;33995;48.202;16.260;2023-02-28T07:06:10;18.10;;;14.17;;
48205;SDS011;33995;48.202;16.260;2023-02-28T07:08:37;16.67;;;13.87;;
48205;SDS011;33995;48.202;16.260;2023-02-28T07:11:06;20.57;;;14.10;;
48205;SDS011;33995;48.202;16.260;2023-02-28T07:13:33;19.17;;;14.27;;
48205;SDS011;33995;48.202;16.260;2023-02-28T07:16:01;20.50;;;14.47;;
48205;SDS011;33995;48.202;16.260;2023-02-28T07:18:31;17.00;;;13.93;;
48205;SDS011;33995;48.202;16.260;2023-02-28T07:21:01;18.20;;;14.63;;
48205;SDS011;33995;48.202;16.260;2023-02-28T07:23:29;18.60;;;14.83;;
48205;SDS011;33995;48.202;16.260;2023-02-28T07:25:56;17.67;;;14.37;;
48205;SDS011;33995;48.202;16.260;2023-02-28T07:28:24;17.27;;;14.07;;
48205;SDS011;33995;48.202;16.260;2023-02-28T07:30:53;17.70;;;14.37;;
48205;SDS011;33995;48.202;16.260;2023-02-28T07:33:22;18.47;;;14.53;;
48205;SDS011;33995;48.202;16.260;2023-02-28T07:35:50;18.80;;;14.90;;
48205;SDS011;33995;48.202;16.260;2023-02-28T07:38:19;18.00;;;14.97;;
48205;SDS011;33995;48.202;16.260;2023-02-28T07:40:47;18.40;;;14.80;;
48205;SDS011;33995;48.202;16.260;2023-02-28T07:43:14;19.23;;;14.97;;
48205;SDS011;33995;48.202;16.260;2023-02-28T07:45:42;21.30;;;15.87;;
48205;SDS011;33995;48.202;16.260;2023-02-28T07:48:11;17.63;;;14.70;;
48205;SDS011;33995;48.202;16.260;2023-02-28T07:50:38;18.43;;;15.43;;
48205;SDS011;33995;48.202;16.260;2023-02-28T07:53:05;18.30;;;15.30;;
48205;SDS011;33995;48.202;16.260;2023-02-28T07:55:32;18.67;;;15.57;;
48205;SDS011;33995;48.202;16.260;2023-02-28T07:57:59;18.37;;;15.57;;
48205;SDS011;33995;48.202;16.260;2023-02-28T08:00:26;18.87;;;15.30;;
48205;SDS011;33995;48.202;16.260;2023-02-28T08:02:56;18.23;;;15.60;;
48205;SDS011;33995;48.202;16.260;2023-02-28T08:05:26;18.30;;;15.50;;
48205;SDS011;33995;48.202;16.260;2023-02-28T08:07:53;19.57;;;15.77;;
48205;SDS011;33995;48.202;16.260;2023-02-28T08:10:24;16.90;;;15.07;;
48205;SDS011;33995;48.202;16.260;2023-02-28T08:12:51;18.33;;;15.30;;
48205;SDS011;33995;48.202;16.260;2023-02-28T08:15:18;19.87;;;15.47;;
48205;SDS011;33995;48.202;16.260;2023-02-28T08:17:45;19.20;;;16.20;;
48205;SDS011;33995;48.202;16.260;2023-02-28T08:20:12;20.23;;;16.10;;
48205;SDS011;33995;48.202;16.260;2023-02-28T08:22:40;19.43;;;16.00;;
48205;SDS011;33995;48.202;16.260;2023-02-28T08:25:11;19.07;;;15.03;;
48205;SDS011;33995;48.202;16.260;2023-02-28T08:27:38;19.97;;;15.87;;
48205;SDS011;33995;48.202;16.260;2023-02-28T08:30:05;17.03;;;14.17;;
48205;SDS011;33995;48.202;16.260;2023-02-28T08:32:33;19.70;;;14.87;;
48205;SDS011;33995;48.202;16.260;2023-02-28T08:35:00;18.30;;;14.83;;
48205;SDS011;33995;48.202;16.260;2023-02-28T08:37:29;17.13;;;14.20;;
48205;SDS011;33995;48.202;16.260;2023-02-28T08:39:59;18.17;;;15.20;;
48205;SDS011;33995;48.202;16.260;2023-02-28T08:42:27;17.77;;;15.00;;
48205;SDS011;33995;48.202;16.260;2023-02-28T08:44:55;16.63;;;14.37;;
48205;SDS011;33995;48.202;16.260;2023-02-28T08:47:22;17.33;;;14.87;;
48205;SDS011;33995;48.202;16.260;2023-02-28T08:49:49;20.33;;;15.33;;
48205;SDS011;33995;48.202;16.260;2023-02-28T08:52:16;18.33;;;14.73;;
48205;SDS011;33995;48.202;16.260;2023-02-28T08:54:43;17.07;;;14.67;;
48205;SDS011;33995;48.202;16.260;2023-02-28T08:57:11;18.20;;;15.50;;
48205;SDS011;33995;48.202;16.260;2023-02-28T08:59:38;18.23;;;15.33;;
48205;SDS011;33995;48.202;16.260;2023-02-28T09:02:05;17.97;;;14.63;;
48205;SDS011;33995;48.202;16.260;2023-02-28T09:04:33;17.23;;;14.53;;
48205;SDS011;33995;48.202;16.260;2023-02-28T09:07:00;17.57;;;14.60;;
48205;SDS011;33995;48.202;16.260;2023-02-28T09:09:29;16.97;;;15.17;;
48205;SDS011;33995;48.202;16.260;2023-02-28T09:11:56;18.23;;;15.30;;
48205;SDS011;33995;48.202;16.260;2023-02-28T09:14:23;19.60;;;15.03;;
48205;SDS011;33995;48.202;16.260;2023-02-28T09:16:50;17.97;;;14.07;;
48205;SDS011;33995;48.202;16.260;2023-02-28T09:19:18;15.67;;;13.97;;
48205;SDS011;33995;48.202;16.260;2023-02-28T09:21:45;15.77;;;13.80;;
48205;SDS011;33995;48.202;16.260;2023-02-28T09:24:13;15.87;;;13.77;;
48205;SDS011;33995;48.202;16.260;2023-02-28T09:26:41;16.03;;;13.57;;
48205;SDS011;33995;48.202;16.260;2023-02-28T09:29:28;15.70;;;13.53;;
48205;SDS011;33995;48.202;16.260;2023-02-28T09:31:57;16.67;;;14.03;;
48205;SDS011;33995;48.202;16.260;2023-02-28T09:34:27;15.23;;;13.60;;
48205;SDS011;33995;48.202;16.260;2023-02-28T09:36:57;16.77;;;14.97;;
48205;SDS011;33995;48.202;16.260;2023-02-28T09:39:24;18.80;;;16.80;;
48205;SDS011;33995;48.202;16.260;2023-02-28T09:41:53;14.80;;;13.20;;
48205;SDS011;33995;48.202;16.260;2023-02-28T09:44:40;15.03;;;13.37;;
48205;SDS011;33995;48.202;16.260;2023-02-28T09:47:25;16.07;;;14.30;;
48205;SDS011;33995;48.202;16.260;2023-02-28T09:49:58;18.53;;;14.67;;
48205;SDS011;33995;48.202;16.260;2023-02-28T09:52:38;15.30;;;13.63;;
48205;SDS011;33995;48.202;16.260;2023-02-28T09:55:18;14.93;;;13.40;;
48205;SDS011;33995;48.202;16.260;2023-02-28T09:57:46;16.23;;;13.97;;
48205;SDS011;33995;48.202;16.260;2023-02-28T10:05:28;15.70;;;14.00;;
48205;SDS011;33995;48.202;16.260;2023-02-28T10:08:12;15.27;;;13.50;;
48205;SDS011;33995;48.202;16.260;2023-02-28T10:10:42;15.67;;;13.37;;
48205;SDS011;33995;48.202;16.260;2023-02-28T10:13:13;14.63;;;13.20;;
48205;SDS011;33995;48.202;16.260;2023-02-28T10:15:49;15.17;;;13.37;;
48205;SDS011;33995;48.202;16.260;2023-02-28T10:18:27;15.97;;;13.67;;
48205;SDS011;33995;48.202;16.260;2023-02-28T10:21:09;16.30;;;13.87;;
48205;SDS011;33995;48.202;16.260;2023-02-28T10:27:16;15.37;;;13.70;;
48205;SDS011;33995;48.202;16.260;2023-02-28T10:29:49;14.20;;;12.80;;
48205;SDS011;33995;48.202;16.260;2023-02-28T10:32:17;16.03;;;14.33;;
48205;SDS011;33995;48.202;16.260;2023-02-28T10:37:50;15.13;;;13.53;;
48205;SDS011;33995;48.202;16.260;2023-02-28T10:42:57;15.33;;;13.80;;
48205;SDS011;33995;48.202;16.260;2023-02-28T10:45:25;15.00;;;13.40;;
48205;SDS011;33995;48.202;16.260;2023-02-28T10:47:57;15.47;;;13.87;;
48205;SDS011;33995;48.202;16.260;2023-02-28T10:50:34;15.83;;;14.13;;
48205;SDS011;33995;48.202;16.260;2023-02-28T10:56:00;15.77;;;14.10;;
48205;SDS011;33995;48.202;16.260;2023-02-28T10:58:42;14.60;;;13.10;;
48205;SDS011;33995;48.202;16.260;2023-02-28T11:01:47;15.20;;;13.57;;
48205;SDS011;33995;48.202;16.260;2023-02-28T11:06:59;15.70;;;14.10;;
48205;SDS011;33995;48.202;16.260;2023-02-28T11:09:29;15.30;;;13.70;;
48205;SDS011;33995;48.202;16.260;2023-02-28T11:12:08;14.97;;;13.23;;
48205;SDS011;33995;48.202;16.260;2023-02-28T11:14:58;15.40;;;13.80;;
48205;SDS011;33995;48.202;16.260;2023-02-28T11:17:30;15.10;;;13.50;;
48205;SDS011;33995;48.202;16.260;2023-02-28T11:20:00;14.80;;;13.33;;
48205;SDS011;33995;48.202;16.260;2023-02-28T11:22:31;17.30;;;14.57;;
48205;SDS011;33995;48.202;16.260;2023-02-28T11:25:06;15.70;;;13.93;;
48205;SDS011;33995;48.202;16.260;2023-02-28T11:30:31;14.70;;;13.20;;
48205;SDS011;33995;48.202;16.260;2023-02-28T11:36:04;13.97;;;12.57;;
48205;SDS011;33995;48.202;16.260;2023-02-28T11:38:47;15.10;;;13.30;;
48205;SDS011;33995;48.202;16.260;2023-02-28T11:44:16;15.17;;;13.57;;
48205;SDS011;33995;48.202;16.260;2023-02-28T11:46:59;15.40;;;13.60;;
48205;SDS011;33995;48.202;16.260;2023-02-28T11:49:31;14.40;;;12.90;;
48205;SDS011;33995;48.202;16.260;2023-02-28T12:11:53;15.73;;;13.20;;
48205;SDS011;33995;48.202;16.260;2023-02-28T12:23:14;15.37;;;13.77;;
48205;SDS011;33995;48.202;16.260;2023-02-28T12:28:53;15.70;;;12.80;;
48205;SDS011;33995;48.202;16.260;2023-02-28T12:31:28;13.97;;;12.67;;
48205;SDS011;33995;48.202;16.260;2023-02-28T12:34:01;13.77;;;12.37;;
48205;SDS011;33995;48.202;16.260;2023-02-28T12:36:36;14.13;;;12.63;;
48205;SDS011;33995;48.202;16.260;2023-02-28T12:39:06;14.40;;;12.80;;
48205;SDS011;33995;48.202;16.260;2023-02-28T12:41:41;13.60;;;12.20;;
48205;SDS011;33995;48.202;16.260;2023-02-28T12:44:30;14.03;;;12.63;;
48205;SDS011;33995;48.202;16.260;2023-02-28T12:47:05;13.57;;;12.17;;
48205;SDS011;33995;48.202;16.260;2023-02-28T12:49:45;13.40;;;12.10;;
48205;SDS011;33995;48.202;16.260;2023-02-28T12:52:37;13.20;;;12.00;;
48205;SDS011;33995;48.202;16.260;2023-02-28T13:09:23;14.53;;;11.40;;
48205;SDS011;33995;48.202;16.260;2023-02-28T13:11:51;12.63;;;11.20;;
48205;SDS011;33995;48.202;16.260;2023-02-28T13:17:01;11.37;;;10.17;;
48205;SDS011;33995;48.202;16.260;2023-02-28T13:19:37;10.87;;;9.73;;
48205;SDS011;33995;48.202;16.260;2023-02-28T13:22:16;10.60;;;9.50;;
48205;SDS011;33995;48.202;16.260;2023-02-28T13:24:53;12.17;;;10.00;;
48205;SDS011;33995;48.202;16.260;2023-02-28T13:29:52;11.33;;;10.13;;
48205;SDS011;33995;48.202;16.260;2023-02-28T13:32:28;11.00;;;9.90;;
48205;SDS011;33995;48.202;16.260;2023-02-28T13:47:42;10.77;;;9.67;;
48205;SDS011;33995;48.202;16.260;2023-02-28T14:06:39;10.33;;;9.20;;
48205;SDS011;33995;48.202;16.260;2023-02-28T14:09:39;10.13;;;9.13;;
48205;SDS011;33995;48.202;16.260;2023-02-28T14:15:28;10.60;;;9.60;;
48205;SDS011;33995;48.202;16.260;2023-02-28T14:17:57;12.33;;;10.30;;
48205;SDS011;33995;48.202;16.260;2023-02-28T14:20:29;10.60;;;9.47;;
48205;SDS011;33995;48.202;16.260;2023-02-28T14:31:18;10.87;;;9.77;;
48205;SDS011;33995;48.202;16.260;2023-02-28T14:36:52;10.30;;;9.33;;
48205;SDS011;33995;48.202;16.260;2023-02-28T14:39:24;11.20;;;9.90;;
48205;SDS011;33995;48.202;16.260;2023-02-28T14:41:54;10.10;;;9.20;;
48205;SDS011;33995;48.202;16.260;2023-02-28T14:44:23;10.40;;;9.40;;
48205;SDS011;33995;48.202;16.260;2023-02-28T14:46:52;11.63;;;10.57;;
48205;SDS011;33995;48.202;16.260;2023-02-28T14:54:57;11.40;;;10.30;;
48205;SDS011;33995;48.202;16.260;2023-02-28T14:57:31;11.13;;;10.03;;
48205;SDS011;33995;48.202;16.260;2023-02-28T15:00:25;11.87;;;10.73;;
48205;SDS011;33995;48.202;16.260;2023-02-28T15:02:55;11.50;;;10.30;;
48205;SDS011;33995;48.202;16.260;2023-02-28T15:08:01;10.83;;;9.93;;
48205;SDS011;33995;48.202;16.260;2023-02-28T15:10:41;10.90;;;9.90;;
48205;SDS011;33995;48.202;16.260;2023-02-28T15:13:38;10.30;;;9.30;;
48205;SDS011;33995;48.202;16.260;2023-02-28T15:16:12;10.40;;;9.47;;
48205;SDS011;33995;48.202;16.260;2023-02-28T15:24:04;10.80;;;9.77;;
48205;SDS011;33995;48.202;16.260;2023-02-28T15:26:43;11.13;;;10.03;;
48205;SDS011;33995;48.202;16.260;2023-02-28T15:29:19;11.17;;;10.07;;
48205;SDS011;33995;48.202;16.260;2023-02-28T15:31:49;11.13;;;10.13;;
48205;SDS011;33995;48.202;16.260;2023-02-28T15:40:15;12.00;;;10.47;;
48205;SDS011;33995;48.202;16.260;2023-02-28T15:43:03;11.57;;;10.47;;
48205;SDS011;33995;48.202;16.260;2023-02-28T15:45:39;11.90;;;10.70;;
48205;SDS011;33995;48.202;16.260;2023-02-28T15:48:28;12.63;;;11.43;;
48205;SDS011;33995;48.202;16.260;2023-02-28T15:53:30;12.03;;;10.83;;
48205;SDS011;33995;48.202;16.260;2023-02-28T15:56:01;11.77;;;10.57;;
48205;SDS011;33995;48.202;16.260;2023-02-28T15:58:36;12.33;;;11.03;;
48205;SDS011;33995;48.202;16.260;2023-02-28T16:01:05;12.77;;;11.47;;
48205;SDS011;33995;48.202;16.260;2023-02-28T16:03:37;14.00;;;12.60;;
48205;SDS011;33995;48.202;16.260;2023-02-28T16:08:44;14.40;;;12.90;;
48205;SDS011;33995;48.202;16.260;2023-02-28T16:11:11;13.80;;;12.33;;
48205;SDS011;33995;48.202;16.260;2023-02-28T16:13:38;13.53;;;12.17;;
48205;SDS011;33995;48.202;16.260;2023-02-28T16:16:06;14.40;;;12.90;;
48205;SDS011;33995;48.202;16.260;2023-02-28T16:18:33;15.83;;;13.23;;
48205;SDS011;33995;48.202;16.260;2023-02-28T16:21:01;13.93;;;12.57;;
48205;SDS011;33995;48.202;16.260;2023-02-28T16:23:28;16.37;;;12.27;;
48205;SDS011;33995;48.202;16.260;2023-02-28T16:25:55;13.67;;;12.30;;
48205;SDS011;33995;48.202;16.260;2023-02-28T16:28:30;14.83;;;13.10;;
48205;SDS011;33995;48.202;16.260;2023-02-28T16:31:03;13.77;;;12.13;;
48205;SDS011;33995;48.202;16.260;2023-02-28T16:33:33;14.37;;;12.80;;
48205;SDS011;33995;48.202;16.260;2023-02-28T16:36:05;13.77;;;12.27;;
48205;SDS011;33995;48.202;16.260;2023-02-28T16:38:36;14.43;;;12.30;;
48205;SDS011;33995;48.202;16.260;2023-02-28T16:41:03;14.30;;;12.80;;
48205;SDS011;33995;48.202;16.260;2023-02-28T16:43:32;14.77;;;12.90;;
48205;SDS011;33995;48.202;16.260;2023-02-28T16:45:59;14.50;;;13.00;;
48205;SDS011;33995;48.202;16.260;2023-02-28T16:48:28;15.07;;;13.53;;
48205;SDS011;33995;48.202;16.260;2023-02-28T16:50:57;15.03;;;12.83;;
48205;SDS011;33995;48.202;16.260;2023-02-28T16:53:25;16.07;;;13.47;;
48205;SDS011;33995;48.202;16.260;2023-02-28T16:55:52;15.47;;;13.80;;
48205;SDS011;33995;48.202;16.260;2023-02-28T16:58:20;14.47;;;12.97;;
48205;SDS011;33995;48.202;16.260;2023-02-28T17:00:52;15.80;;;14.07;;
48205;SDS011;33995;48.202;16.260;2023-02-28T17:03:23;15.30;;;13.80;;
48205;SDS011;33995;48.202;16.260;2023-02-28T17:05:59;15.33;;;13.70;;
48205;SDS011;33995;48.202;16.260;2023-02-28T17:08:26;15.63;;;14.00;;
48205;SDS011;33995;48.202;16.260;2023-02-28T17:10:57;15.53;;;13.90;;
48205;SDS011;33995;48.202;16.260;2023-02-28T17:13:25;16.13;;;13.57;;
48205;SDS011;33995;48.202;16.260;2023-02-28T17:15:52;15.80;;;14.10;;
48205;SDS011;33995;48.202;16.260;2023-02-28T17:18:20;18.40;;;14.60;;
48205;SDS011;33995;48.202;16.260;2023-02-28T17:20:50;15.83;;;14.13;;
48205;SDS011;33995;48.202;16.260;2023-02-28T17:23:17;15.07;;;13.57;;
48205;SDS011;33995;48.202;16.260;2023-02-28T17:25:47;16.00;;;14.33;;
48205;SDS011;33995;48.202;16.260;2023-02-28T17:28:23;22.20;;;18.67;;
48205;SDS011;33995;48.202;16.260;2023-02-28T17:30:53;20.10;;;16.57;;
48205;SDS011;33995;48.202;16.260;2023-02-28T17:33:20;18.77;;;15.77;;
48205;SDS011;33995;48.202;16.260;2023-02-28T17:35:48;18.87;;;16.23;;
48205;SDS011;33995;48.202;16.260;2023-02-28T17:38:21;17.53;;;15.57;;
48205;SDS011;33995;48.202;16.260;2023-02-28T17:40:53;18.77;;;15.40;;